createdAt,value
2022-09-23T00:01:21.285Z,1.67
2022-09-23T00:03:49.418Z,1.70
2022-09-23T00:06:19.154Z,1.67
2022-09-23T00:08:46.920Z,1.47
2022-09-23T00:11:19.564Z,2.13
2022-09-23T00:13:49.113Z,1.47
2022-09-23T00:16:22.885Z,1.50
2022-09-23T00:18:50.670Z,1.67
2022-09-23T00:21:19.814Z,3.43
2022-09-23T00:23:48.590Z,2.40
2022-09-23T00:26:17.659Z,1.40
2022-09-23T00:28:46.033Z,1.70
2022-09-23T00:31:33.261Z,1.60
2022-09-23T00:34:01.402Z,1.33
2022-09-23T00:36:29.951Z,1.63
2022-09-23T00:38:57.267Z,1.40
2022-09-23T00:41:27.959Z,1.40
2022-09-23T00:44:00.392Z,1.40
2022-09-23T00:46:36.661Z,1.60
2022-09-23T00:49:11.373Z,1.80
2022-09-23T00:51:43.583Z,1.43
2022-09-23T00:54:11.218Z,1.40
2022-09-23T00:56:40.519Z,2.03
2022-09-23T00:59:09.788Z,2.60
2022-09-23T01:01:38.643Z,1.13
2022-09-23T01:04:08.048Z,1.73
2022-09-23T01:06:35.527Z,2.20
2022-09-23T01:09:03.016Z,1.47
2022-09-23T01:11:55.239Z,1.20
2022-09-23T01:14:40.736Z,1.30
2022-09-23T01:17:17.434Z,1.63
2022-09-23T01:20:08.634Z,1.63
2022-09-23T01:22:49.607Z,1.50
2022-09-23T01:25:47.400Z,2.10
2022-09-23T01:28:27.753Z,1.63
2022-09-23T01:31:03.614Z,1.63
2022-09-23T01:33:52.394Z,1.70
2022-09-23T01:36:26.437Z,2.80
2022-09-23T01:39:09.321Z,1.13
2022-09-23T01:41:57.955Z,1.43
2022-09-23T01:44:35.020Z,1.43
2022-09-23T01:47:15.062Z,3.13
2022-09-23T01:49:51.242Z,1.33
2022-09-23T01:52:38.996Z,2.80
2022-09-23T01:55:32.288Z,1.40
2022-09-23T01:58:02.798Z,1.80
2022-09-23T02:00:35.102Z,3.13
2022-09-23T02:03:07.663Z,1.60
2022-09-23T02:05:39.711Z,1.43
2022-09-23T02:08:13.930Z,1.50
2022-09-23T02:10:47.218Z,3.23
2022-09-23T02:13:24.630Z,2.17
2022-09-23T02:15:57.212Z,1.97
2022-09-23T02:18:42.381Z,2.87
2022-09-23T02:21:10.164Z,2.20
2022-09-23T02:23:50.847Z,1.83
2022-09-23T02:26:21.125Z,1.37
2022-09-23T02:29:07.953Z,2.80
2022-09-23T02:31:34.976Z,1.20
2022-09-23T02:34:26.579Z,2.57
2022-09-23T02:37:34.980Z,1.47
2022-09-23T02:40:10.135Z,2.73
2022-09-23T02:43:04.696Z,1.33
2022-09-23T02:45:31.976Z,1.70
2022-09-23T02:48:10.964Z,1.20
2022-09-23T02:50:39.118Z,1.47
2022-09-23T02:53:07.699Z,1.90
2022-09-23T02:55:35.073Z,2.00
2022-09-23T02:58:05.560Z,1.73
2022-09-23T03:01:07.580Z,2.57
2022-09-23T03:03:57.245Z,2.47
2022-09-23T03:06:42.548Z,2.50
2022-09-23T03:09:33.978Z,1.57
2022-09-23T03:12:36.226Z,1.40
2022-09-23T03:15:40.826Z,1.60
2022-09-23T03:18:32.046Z,1.43
2022-09-23T03:21:04.189Z,1.97
2022-09-23T03:23:35.949Z,4.03
2022-09-23T03:26:36.058Z,3.23
2022-09-23T03:29:05.883Z,2.70
2022-09-23T03:31:34.654Z,2.63
2022-09-23T03:34:05.222Z,1.10
2022-09-23T03:36:51.649Z,1.20
2022-09-23T03:39:31.944Z,2.40
2022-09-23T03:42:02.684Z,2.73
2022-09-23T03:44:30.351Z,2.90
2022-09-23T03:47:05.567Z,1.10
2022-09-23T03:49:39.829Z,1.47
2022-09-23T03:52:07.551Z,1.30
2022-09-23T03:54:34.858Z,1.53
2022-09-23T03:57:03.163Z,1.33
2022-09-23T03:59:30.978Z,1.43
2022-09-23T04:01:59.664Z,2.23
2022-09-23T04:04:32.565Z,1.40
2022-09-23T04:06:59.921Z,1.70
2022-09-23T04:09:27.243Z,1.93
2022-09-23T04:11:54.493Z,1.43
2022-09-23T04:14:22.964Z,1.67
2022-09-23T04:16:51.102Z,1.40
2022-09-23T04:19:19.000Z,1.40
2022-09-23T04:21:46.975Z,1.60
2022-09-23T04:24:14.956Z,1.57
2022-09-23T04:26:42.350Z,1.97
2022-09-23T04:29:10.663Z,2.27
2022-09-23T04:31:38.381Z,1.40
2022-09-23T04:34:05.744Z,2.20
2022-09-23T04:36:33.172Z,1.83
2022-09-23T04:39:00.786Z,4.37
2022-09-23T04:41:28.131Z,2.93
2022-09-23T04:43:57.583Z,1.30
2022-09-23T04:46:25.173Z,1.93
2022-09-23T04:48:52.461Z,1.70
2022-09-23T04:51:24.921Z,2.20
2022-09-23T04:53:54.048Z,1.70
2022-09-23T04:56:26.940Z,2.80
2022-09-23T04:58:55.049Z,1.70
2022-09-23T05:01:25.442Z,1.60
2022-09-23T05:03:58.679Z,2.17
2022-09-23T05:06:25.800Z,1.70
2022-09-23T05:08:54.927Z,2.60
2022-09-23T05:11:22.495Z,1.40
2022-09-23T05:13:51.344Z,1.50
2022-09-23T05:16:19.198Z,1.43
2022-09-23T05:18:48.423Z,1.40
2022-09-23T05:21:18.206Z,1.60
2022-09-23T05:23:56.637Z,1.87
2022-09-23T05:26:25.742Z,1.77
2022-09-23T05:28:54.198Z,1.40
2022-09-23T05:31:24.939Z,3.80
2022-09-23T05:33:55.689Z,2.30
2022-09-23T05:36:23.598Z,2.03
2022-09-23T05:38:51.441Z,2.07
2022-09-23T05:41:20.947Z,1.30
2022-09-23T05:43:48.178Z,1.50
2022-09-23T05:46:18.051Z,1.20
2022-09-23T05:48:48.164Z,1.50
2022-09-23T05:51:27.590Z,2.30
2022-09-23T05:53:58.483Z,1.87
2022-09-23T05:56:28.635Z,1.63
2022-09-23T05:58:58.364Z,1.60
2022-09-23T06:01:29.305Z,1.60
2022-09-23T06:03:58.528Z,1.65
2022-09-23T06:06:38.108Z,1.50
2022-09-23T06:09:07.157Z,1.13
2022-09-23T06:11:35.899Z,1.75
2022-09-23T06:14:04.638Z,1.60
2022-09-23T06:16:34.721Z,1.25
2022-09-23T06:19:06.520Z,1.40
2022-09-23T06:21:35.872Z,1.73
2022-09-23T06:24:04.222Z,2.38
2022-09-23T06:26:33.895Z,1.95
2022-09-23T06:29:04.836Z,1.50
2022-09-23T06:31:33.257Z,1.85
2022-09-23T06:34:12.364Z,2.45
2022-09-23T06:36:44.525Z,1.30
2022-09-23T06:39:16.649Z,1.95
2022-09-23T06:41:45.440Z,1.83
2022-09-23T06:44:14.726Z,1.88
2022-09-23T06:46:42.149Z,1.90
2022-09-23T06:49:09.355Z,1.83
2022-09-23T06:51:36.871Z,1.75
2022-09-23T06:54:04.233Z,1.73
2022-09-23T06:56:34.880Z,1.85
2022-09-23T06:59:05.599Z,1.60
2022-09-23T07:01:33.654Z,1.80
2022-09-23T07:04:01.868Z,2.70
2022-09-23T07:06:29.529Z,1.80
2022-09-23T07:08:56.734Z,1.40
2022-09-23T07:11:23.980Z,2.00
2022-09-23T07:13:51.138Z,1.98
2022-09-23T07:16:18.398Z,1.60
2022-09-23T07:18:46.051Z,2.22
2022-09-23T07:21:16.099Z,1.90
2022-09-23T07:23:50.214Z,1.90
2022-09-23T07:26:19.154Z,2.10
2022-09-23T07:28:46.603Z,2.55
2022-09-23T07:31:17.113Z,1.80
2022-09-23T07:33:46.507Z,1.75
2022-09-23T07:36:17.489Z,1.98
2022-09-23T07:38:46.182Z,2.50
2022-09-23T07:41:17.079Z,2.40
2022-09-23T07:43:45.529Z,2.05
2022-09-23T07:46:16.947Z,1.65
2022-09-23T07:48:46.043Z,1.65
2022-09-23T07:51:19.145Z,1.70
2022-09-23T07:53:54.088Z,1.30
2022-09-23T07:56:25.151Z,1.67
2022-09-23T07:59:01.840Z,1.33
2022-09-23T08:01:31.873Z,1.50
2022-09-23T08:04:02.297Z,1.90
2022-09-23T08:06:30.009Z,1.40
2022-09-23T08:08:58.993Z,1.60
2022-09-23T08:11:27.237Z,1.95
2022-09-23T08:13:54.862Z,1.90
2022-09-23T08:16:22.357Z,1.50
2022-09-23T08:18:50.329Z,2.15
2022-09-23T08:21:22.027Z,1.30
2022-09-23T08:23:49.657Z,1.65
2022-09-23T08:26:21.434Z,2.50
2022-09-23T08:28:50.501Z,1.77
2022-09-23T08:31:17.803Z,2.03
2022-09-23T08:33:44.978Z,1.65
2022-09-23T08:36:12.413Z,1.80
2022-09-23T08:38:39.482Z,1.55
2022-09-23T08:41:33.734Z,1.95
2022-09-23T08:44:12.016Z,1.40
2022-09-23T08:46:46.838Z,2.05
2022-09-23T08:49:23.622Z,1.88
2022-09-23T08:51:54.961Z,1.70
2022-09-23T08:54:22.498Z,2.88
2022-09-23T08:56:52.314Z,2.47
2022-09-23T08:59:37.153Z,1.80
2022-09-23T09:02:19.467Z,2.20
2022-09-23T09:04:56.653Z,1.85
2022-09-23T09:07:37.892Z,1.77
2022-09-23T09:10:22.737Z,2.00
2022-09-23T09:12:58.198Z,1.65
2022-09-23T09:15:27.524Z,1.77
2022-09-23T09:18:12.377Z,2.53
2022-09-23T09:21:05.418Z,1.70
2022-09-23T09:23:35.357Z,1.60
2022-09-23T09:26:03.221Z,1.67
2022-09-23T09:28:39.004Z,1.55
2022-09-23T09:31:36.223Z,1.75
2022-09-23T09:34:16.063Z,1.60
2022-09-23T09:37:07.701Z,1.45
2022-09-23T09:39:35.944Z,2.65
2022-09-23T09:42:04.577Z,1.90
2022-09-23T09:45:00.962Z,2.25
2022-09-23T09:47:59.517Z,3.72
2022-09-23T09:51:18.958Z,1.48
2022-09-23T09:53:46.381Z,1.90
2022-09-23T09:56:16.570Z,1.50
2022-09-23T09:59:17.017Z,1.40
2022-09-23T10:01:44.255Z,1.75
2022-09-23T10:04:22.233Z,3.55
2022-09-23T10:07:09.942Z,1.75
2022-09-23T10:09:38.990Z,1.63
2022-09-23T10:12:18.732Z,1.98
2022-09-23T10:14:51.426Z,1.80
2022-09-23T10:17:33.898Z,1.52
2022-09-23T10:20:10.021Z,2.03
2022-09-23T10:22:42.563Z,1.75
2022-09-23T10:25:30.261Z,2.08
2022-09-23T10:27:57.395Z,3.53
2022-09-23T10:30:27.885Z,1.67
2022-09-23T10:32:57.313Z,2.03
2022-09-23T10:35:25.744Z,1.63
2022-09-23T10:38:02.238Z,1.67
2022-09-23T10:40:55.488Z,3.10
2022-09-23T10:44:00.472Z,1.52
2022-09-23T10:46:45.970Z,3.75
2022-09-23T10:49:31.689Z,2.03
2022-09-23T10:52:01.789Z,2.03
2022-09-23T10:55:00.693Z,3.08
2022-09-23T10:57:46.275Z,3.58
2022-09-23T11:00:37.967Z,4.40
2022-09-23T11:03:32.346Z,2.70
2022-09-23T11:06:20.437Z,1.58
2022-09-23T11:08:57.430Z,2.28
2022-09-23T11:11:24.502Z,1.33
2022-09-23T11:13:58.956Z,2.60
2022-09-23T11:16:53.127Z,1.38
2022-09-23T11:19:26.259Z,2.25
2022-09-23T11:22:08.459Z,1.77
2022-09-23T11:24:58.391Z,2.75
2022-09-23T11:27:47.404Z,1.40
2022-09-23T11:30:20.039Z,1.50
2022-09-23T11:33:13.559Z,1.52
2022-09-23T11:35:57.361Z,1.42
2022-09-23T11:38:35.960Z,2.83
2022-09-23T11:41:19.643Z,1.63
2022-09-23T11:43:52.540Z,2.25
2022-09-23T11:46:37.713Z,1.35
2022-09-23T11:49:42.662Z,2.78
2022-09-23T11:52:20.750Z,2.03
2022-09-23T11:55:01.224Z,1.58
2022-09-23T11:57:49.283Z,2.05
2022-09-23T12:00:22.971Z,1.67
2022-09-23T12:03:02.993Z,1.60
2022-09-23T12:05:39.611Z,2.33
2022-09-23T12:08:29.151Z,1.42
2022-09-23T12:11:13.284Z,2.78
2022-09-23T12:14:21.666Z,1.30
2022-09-23T12:17:22.215Z,1.65
2022-09-23T12:20:28.284Z,1.35
2022-09-23T12:23:19.949Z,1.45
2022-09-23T12:26:01.940Z,2.13
2022-09-23T12:28:38.094Z,1.60
2022-09-23T12:31:10.978Z,1.50
2022-09-23T12:33:38.992Z,2.85
2022-09-23T12:36:12.305Z,2.38
2022-09-23T12:39:04.423Z,1.60
2022-09-23T12:41:37.694Z,2.60
2022-09-23T12:44:12.564Z,2.38
2022-09-23T12:46:41.168Z,3.60
2022-09-23T12:49:30.044Z,1.95
2022-09-23T12:52:12.615Z,1.40
2022-09-23T12:54:41.376Z,1.55
2022-09-23T12:57:34.603Z,1.27
2022-09-23T13:00:12.742Z,1.80
2022-09-23T13:02:47.313Z,1.30
2022-09-23T13:05:41.952Z,3.00
2022-09-23T13:08:16.214Z,1.40
2022-09-23T13:10:49.579Z,1.30
2022-09-23T13:13:37.936Z,1.67
2022-09-23T13:16:31.158Z,2.92
2022-09-23T13:19:05.673Z,2.83
2022-09-23T13:21:45.901Z,1.27
2022-09-23T13:24:13.348Z,1.10
2022-09-23T13:26:50.083Z,1.63
2022-09-23T13:29:42.451Z,1.67
2022-09-23T13:32:18.050Z,2.10
2022-09-23T13:35:32.471Z,1.70
2022-09-23T13:37:59.778Z,1.40
2022-09-23T13:40:31.811Z,3.35
2022-09-23T13:43:05.581Z,1.67
2022-09-23T13:45:38.279Z,2.05
2022-09-23T13:48:15.570Z,3.47
2022-09-23T13:50:50.027Z,1.35
2022-09-23T13:53:31.700Z,2.58
2022-09-23T13:56:04.150Z,1.55
2022-09-23T13:58:33.559Z,1.10
2022-09-23T14:01:01.429Z,1.55
2022-09-23T14:03:37.058Z,1.10
2022-09-23T14:06:16.326Z,2.45
2022-09-23T14:08:50.028Z,1.67
2022-09-23T14:11:19.787Z,1.90
2022-09-23T14:13:49.240Z,1.30
2022-09-23T14:16:17.371Z,1.20
2022-09-23T14:18:46.734Z,2.50
2022-09-23T14:21:35.150Z,1.38
2022-09-23T14:24:26.058Z,1.95
2022-09-23T14:27:00.738Z,1.30
2022-09-23T14:29:32.100Z,1.52
2022-09-23T14:32:04.244Z,1.45
2022-09-23T14:34:44.969Z,1.42
2022-09-23T14:37:37.346Z,3.63
2022-09-23T14:40:13.297Z,1.95
2022-09-23T14:42:47.228Z,1.10
2022-09-23T14:45:19.245Z,2.10
2022-09-23T14:48:08.111Z,1.83
2022-09-23T14:50:47.250Z,1.48
2022-09-23T14:53:22.017Z,2.78
2022-09-23T14:56:07.261Z,1.55
2022-09-23T14:58:52.547Z,2.05
2022-09-23T15:01:32.590Z,1.92
2022-09-23T15:04:09.962Z,1.30
2022-09-23T15:06:40.111Z,1.55
2022-09-23T15:09:07.634Z,1.70
2022-09-23T15:11:36.203Z,1.27
2022-09-23T15:14:26.326Z,3.25
2022-09-23T15:16:53.757Z,1.20
2022-09-23T15:19:23.634Z,3.30
2022-09-23T15:21:53.664Z,1.35
2022-09-23T15:24:40.362Z,1.30
2022-09-23T15:27:31.721Z,1.80
2022-09-23T15:30:19.623Z,2.63
2022-09-23T15:32:47.625Z,1.08
2022-09-23T15:35:21.118Z,1.42
2022-09-23T15:37:50.422Z,1.50
2022-09-23T15:40:24.915Z,1.80
2022-09-23T15:42:58.772Z,1.60
2022-09-23T15:45:33.420Z,2.10
2022-09-23T15:48:08.222Z,1.55
2022-09-23T15:50:36.962Z,1.65
2022-09-23T15:53:06.327Z,1.52
2022-09-23T15:55:33.903Z,2.80
2022-09-23T15:58:01.379Z,1.70
2022-09-23T16:00:28.740Z,1.73
2022-09-23T16:02:56.044Z,1.65
2022-09-23T16:05:25.242Z,21.65
2022-09-23T16:07:53.160Z,13.50
2022-09-23T16:10:22.589Z,4.35
2022-09-23T16:12:52.129Z,1.30
2022-09-23T16:15:21.522Z,1.73
2022-09-23T16:17:48.796Z,2.70
2022-09-23T16:20:17.922Z,1.88
2022-09-23T16:22:54.139Z,1.33
2022-09-23T16:25:23.608Z,2.45
2022-09-23T16:27:50.804Z,1.83
2022-09-23T16:30:18.040Z,2.85
2022-09-23T16:32:45.263Z,3.13
2022-09-23T16:35:12.461Z,3.25
2022-09-23T16:37:39.796Z,2.15
2022-09-23T16:40:09.902Z,1.00
2022-09-23T16:42:38.406Z,1.85
2022-09-23T16:45:06.271Z,1.73
2022-09-23T16:47:33.854Z,2.17
2022-09-23T16:50:01.025Z,1.67
2022-09-23T16:52:31.171Z,1.40
2022-09-23T16:54:58.350Z,1.67
2022-09-23T16:57:25.461Z,1.55
2022-09-23T17:00:11.611Z,2.35
2022-09-23T17:02:57.817Z,1.20
2022-09-23T17:05:25.734Z,1.55
2022-09-23T17:07:54.930Z,2.80
2022-09-23T17:10:22.320Z,1.80
2022-09-23T17:12:50.701Z,2.58
2022-09-23T17:15:17.938Z,1.50
2022-09-23T17:17:46.198Z,1.38
2022-09-23T17:20:16.772Z,1.45
2022-09-23T17:22:44.134Z,2.13
2022-09-23T17:25:11.617Z,2.25
2022-09-23T17:27:39.234Z,3.80
2022-09-23T17:30:07.795Z,2.15
2022-09-23T17:32:34.989Z,1.35
2022-09-23T17:35:04.805Z,1.67
2022-09-23T17:37:33.568Z,2.70
2022-09-23T17:40:01.121Z,1.27
2022-09-23T17:42:28.467Z,1.33
2022-09-23T17:44:59.841Z,1.65
2022-09-23T17:47:28.233Z,1.75
2022-09-23T17:49:56.474Z,1.55
2022-09-23T17:52:24.821Z,2.17
2022-09-23T17:54:55.429Z,1.52
2022-09-23T17:57:22.549Z,1.65
2022-09-23T17:59:53.648Z,2.35
2022-09-23T18:02:22.823Z,1.85
2022-09-23T18:04:50.457Z,1.30
2022-09-23T18:07:17.792Z,2.75
2022-09-23T18:09:45.777Z,1.23
2022-09-23T18:12:14.861Z,1.40
2022-09-23T18:14:42.933Z,1.60
2022-09-23T18:17:11.601Z,1.50
2022-09-23T18:22:35.396Z,1.75
2022-09-23T18:25:17.509Z,1.20
2022-09-23T18:27:51.128Z,1.50
2022-09-23T18:30:18.403Z,3.47
2022-09-23T18:32:45.632Z,2.50
2022-09-23T18:35:12.799Z,1.52
2022-09-23T18:37:39.981Z,1.52
2022-09-23T18:40:12.526Z,2.92
2022-09-23T18:42:41.727Z,2.97
2022-09-23T18:45:10.618Z,2.90
2022-09-23T18:47:56.980Z,1.70
2022-09-23T18:50:50.460Z,2.85
2022-09-23T18:53:17.526Z,4.72
2022-09-23T18:55:45.314Z,1.65
2022-09-23T18:58:14.903Z,3.60
2022-09-23T19:00:42.850Z,2.75
2022-09-23T19:03:10.203Z,3.55
2022-09-23T19:05:37.305Z,1.95
2022-09-23T19:08:04.563Z,1.67
2022-09-23T19:10:31.823Z,3.17
2022-09-23T19:12:59.250Z,2.53
2022-09-23T19:15:27.010Z,1.93
2022-09-23T19:17:55.644Z,3.60
2022-09-23T19:20:22.985Z,1.93
2022-09-23T19:22:50.297Z,2.53
2022-09-23T19:25:17.699Z,4.37
2022-09-23T19:27:44.907Z,2.63
2022-09-23T19:30:13.637Z,1.80
2022-09-23T19:32:44.003Z,5.00
2022-09-23T19:35:16.251Z,2.60
2022-09-23T19:37:43.431Z,1.90
2022-09-23T19:40:11.551Z,2.57
2022-09-23T19:42:39.016Z,1.50
2022-09-23T19:45:07.072Z,2.70
2022-09-23T19:47:34.156Z,2.23
2022-09-23T19:50:01.425Z,2.03
2022-09-23T19:52:29.328Z,1.93
2022-09-23T19:54:56.495Z,2.07
2022-09-23T19:57:23.641Z,3.37
2022-09-23T19:59:50.924Z,2.23
2022-09-23T20:02:18.093Z,2.57
2022-09-23T20:04:45.271Z,2.00
2022-09-23T20:07:13.990Z,2.13
2022-09-23T20:09:42.055Z,1.80
2022-09-23T20:12:09.140Z,3.07
2022-09-23T20:14:36.546Z,1.77
2022-09-23T20:17:03.688Z,1.70
2022-09-23T20:19:31.359Z,1.93
2022-09-23T20:22:16.970Z,2.43
2022-09-23T20:24:44.118Z,2.73
2022-09-23T20:27:11.403Z,4.20
2022-09-23T20:29:38.596Z,2.40
2022-09-23T20:32:06.209Z,2.43
2022-09-23T20:34:34.930Z,2.03
2022-09-23T20:37:02.403Z,3.03
2022-09-23T20:39:30.048Z,2.00
2022-09-23T20:41:57.208Z,1.97
2022-09-23T20:44:25.204Z,2.30
2022-09-23T20:46:52.644Z,2.40
2022-09-23T20:49:21.180Z,2.73
2022-09-23T20:51:49.055Z,2.30
2022-09-23T20:54:19.507Z,2.97
2022-09-23T20:56:47.608Z,2.27
2022-09-23T20:59:15.132Z,2.90
2022-09-23T21:01:43.563Z,3.83
2022-09-23T21:04:10.990Z,3.13
2022-09-23T21:06:39.768Z,4.30
2022-09-23T21:09:08.079Z,2.07
2022-09-23T21:11:35.192Z,2.63
2022-09-23T21:14:02.871Z,3.93
2022-09-23T21:16:30.688Z,2.67
2022-09-23T21:18:58.895Z,2.67
2022-09-23T21:21:26.671Z,4.33
2022-09-23T21:23:53.929Z,3.17
2022-09-23T21:26:23.395Z,2.07
2022-09-23T21:28:53.260Z,2.53
2022-09-23T21:31:26.290Z,4.57
2022-09-23T21:34:01.198Z,1.90
2022-09-23T21:36:30.747Z,1.93
2022-09-23T21:38:58.298Z,1.90
2022-09-23T21:41:25.725Z,1.77
2022-09-23T21:43:53.144Z,2.40
2022-09-23T21:46:21.362Z,3.90
2022-09-23T21:48:53.431Z,3.37
2022-09-23T21:51:24.229Z,1.63
2022-09-23T21:53:54.444Z,2.27
2022-09-23T21:56:27.149Z,2.23
2022-09-23T21:58:56.457Z,1.93
2022-09-23T22:01:29.015Z,2.97
2022-09-23T22:03:58.354Z,2.60
2022-09-23T22:06:27.635Z,1.97
2022-09-23T22:08:59.931Z,2.27
2022-09-23T22:11:48.809Z,2.70
2022-09-23T22:14:17.984Z,2.40
2022-09-23T22:16:45.514Z,3.43
2022-09-23T22:19:14.955Z,1.87
2022-09-23T22:21:44.956Z,2.63
2022-09-23T22:24:12.976Z,3.40
2022-09-23T22:26:42.034Z,2.80
2022-09-23T22:29:29.932Z,1.97
2022-09-23T22:32:15.876Z,2.03
2022-09-23T22:34:50.940Z,1.93
2022-09-23T22:37:21.370Z,2.10
2022-09-23T22:39:48.455Z,5.13
2022-09-23T22:42:16.179Z,3.80
2022-09-23T22:44:43.283Z,2.27
2022-09-23T22:47:10.997Z,2.03
2022-09-23T22:49:38.112Z,3.77
2022-09-23T22:52:08.063Z,2.83
2022-09-23T22:54:36.591Z,2.10
2022-09-23T22:57:08.344Z,2.80
2022-09-23T22:59:37.470Z,1.77
2022-09-23T23:02:06.670Z,3.07
2022-09-23T23:04:34.028Z,2.07
2022-09-23T23:07:01.144Z,3.30
2022-09-23T23:09:28.345Z,3.20
2022-09-23T23:11:55.524Z,2.47
2022-09-23T23:14:22.792Z,2.27
2022-09-23T23:16:50.026Z,2.40
2022-09-23T23:19:19.287Z,2.03
2022-09-23T23:21:46.740Z,2.20
2022-09-23T23:24:18.964Z,2.17
2022-09-23T23:26:46.755Z,3.27
2022-09-23T23:29:16.648Z,2.80
2022-09-23T23:31:44.443Z,2.00
2022-09-23T23:34:17.051Z,3.43
2022-09-23T23:36:45.940Z,4.47
2022-09-23T23:39:14.566Z,3.63
2022-09-23T23:41:42.596Z,5.10
2022-09-23T23:44:11.912Z,4.93
2022-09-23T23:46:39.045Z,4.40
2022-09-23T23:49:06.910Z,9.93
2022-09-23T23:51:34.314Z,11.40
2022-09-23T23:54:01.524Z,22.37
2022-09-23T23:56:30.843Z,29.00
2022-09-23T23:59:00.418Z,29.17
